createdAt,value
2023-02-02T00:01:28.653Z,100821.03
2023-02-02T00:03:56.709Z,100809.59
2023-02-02T00:06:26.380Z,100820.13
2023-02-02T00:08:53.787Z,100826.28
2023-02-02T00:11:20.688Z,100821.91
2023-02-02T00:13:47.615Z,100819.34
2023-02-02T00:16:26.640Z,100833.50
2023-02-02T00:18:55.728Z,100833.53
2023-02-02T00:21:23.273Z,100827.44
2023-02-02T00:23:50.532Z,100828.31
2023-02-02T00:26:18.188Z,100825.69
2023-02-02T00:28:44.955Z,100823.06
2023-02-02T00:31:12.524Z,100812.44
2023-02-02T00:33:39.345Z,100811.59
2023-02-02T00:36:06.719Z,100820.34
2023-02-02T00:38:34.548Z,100813.31
2023-02-02T00:41:01.306Z,100810.63
2023-02-02T00:43:28.044Z,100815.00
2023-02-02T00:45:54.868Z,100817.63
2023-02-02T00:48:21.635Z,100819.34
2023-02-02T00:50:48.406Z,100819.41
2023-02-02T00:53:15.202Z,100815.88
2023-02-02T00:55:41.945Z,100827.28
2023-02-02T00:58:08.699Z,100834.34
2023-02-02T01:00:35.488Z,100841.44
2023-02-02T01:03:04.381Z,100843.25
2023-02-02T01:05:32.882Z,100848.56
2023-02-02T01:07:59.837Z,100849.47
2023-02-02T01:10:26.965Z,100841.59
2023-02-02T01:12:53.776Z,100850.44
2023-02-02T01:15:20.642Z,100856.63
2023-02-02T01:17:47.509Z,100853.13
2023-02-02T01:20:20.471Z,100878.63
2023-02-02T01:22:47.812Z,100870.69
2023-02-02T01:25:14.947Z,100875.97
2023-02-02T01:27:43.168Z,100872.44
2023-02-02T01:30:11.160Z,100869.78
2023-02-02T01:32:37.920Z,100876.78
2023-02-02T01:35:05.034Z,100872.34
2023-02-02T01:37:31.817Z,100885.44
2023-02-02T01:39:58.597Z,100899.47
2023-02-02T01:42:25.396Z,100887.94
2023-02-02T01:45:28.422Z,100902.81
2023-02-02T01:47:58.937Z,100911.56
2023-02-02T01:50:31.425Z,100909.84
2023-02-02T01:53:02.126Z,100906.44
2023-02-02T01:55:31.206Z,100914.34
2023-02-02T01:58:05.088Z,100910.03
2023-02-02T02:00:31.952Z,100917.09
2023-02-02T02:03:09.038Z,100928.59
2023-02-02T02:05:43.302Z,100921.56
2023-02-02T02:08:26.977Z,100920.69
2023-02-02T02:10:54.589Z,100925.09
2023-02-02T02:13:44.861Z,100937.47
2023-02-02T02:16:35.997Z,100933.97
2023-02-02T02:19:32.568Z,100942.78
2023-02-02T02:22:32.868Z,100947.16
2023-02-02T02:25:30.382Z,100954.13
2023-02-02T02:28:43.522Z,100954.91
2023-02-02T02:31:19.048Z,100963.56
2023-02-02T02:33:59.721Z,100960.81
2023-02-02T02:37:01.163Z,100961.53
2023-02-02T02:39:38.014Z,100960.53
2023-02-02T02:42:13.635Z,100967.44
2023-02-02T02:44:41.560Z,100971.72
2023-02-02T02:47:08.905Z,100975.22
2023-02-02T02:49:46.395Z,100977.84
2023-02-02T02:52:14.071Z,100982.22
2023-02-02T02:54:52.985Z,100983.16
2023-02-02T02:58:02.790Z,100987.53
2023-02-02T03:00:38.742Z,100991.88
2023-02-02T03:03:45.384Z,100993.66
2023-02-02T03:06:57.916Z,100995.38
2023-02-02T03:09:35.918Z,100988.44
2023-02-02T03:12:03.435Z,100992.81
2023-02-02T03:14:35.952Z,100988.44
2023-02-02T03:17:02.716Z,100990.16
2023-02-02T03:19:29.490Z,100990.16
2023-02-02T03:21:56.247Z,100995.38
2023-02-02T03:24:23.052Z,100986.59
2023-02-02T03:26:50.047Z,100999.72
2023-02-02T03:29:17.612Z,100999.72
2023-02-02T03:31:44.673Z,101004.13
2023-02-02T03:34:11.439Z,101004.13
2023-02-02T03:36:38.197Z,101008.56
2023-02-02T03:39:04.982Z,101003.25
2023-02-02T03:41:31.766Z,101003.19
2023-02-02T03:43:58.511Z,101014.59
2023-02-02T03:46:25.324Z,101014.53
2023-02-02T03:48:52.137Z,101013.59
2023-02-02T03:51:18.908Z,101024.94
2023-02-02T03:53:47.582Z,101016.97
2023-02-02T03:56:15.126Z,101019.56
2023-02-02T03:58:41.891Z,101028.31
2023-02-02T04:01:12.788Z,101031.91
2023-02-02T04:03:39.565Z,101037.25
2023-02-02T04:06:06.492Z,101037.28
2023-02-02T04:08:34.083Z,101039.06
2023-02-02T04:11:00.963Z,101049.59
2023-02-02T04:13:27.787Z,101046.06
2023-02-02T04:16:01.931Z,101049.56
2023-02-02T04:18:29.464Z,101054.81
2023-02-02T04:21:01.081Z,101057.44
2023-02-02T04:23:31.447Z,101062.72
2023-02-02T04:25:59.220Z,101072.41
2023-02-02T04:28:27.036Z,101069.78
2023-02-02T04:30:55.117Z,101072.44
2023-02-02T04:33:24.791Z,101081.25
2023-02-02T04:35:51.595Z,101077.78
2023-02-02T04:38:18.522Z,101085.72
2023-02-02T04:40:47.726Z,101087.50
2023-02-02T04:43:14.819Z,101088.31
2023-02-02T04:45:42.296Z,101081.25
2023-02-02T04:48:09.423Z,101092.66
2023-02-02T04:50:36.189Z,101075.03
2023-02-02T04:53:03.965Z,101093.47
2023-02-02T04:55:30.756Z,101089.03
2023-02-02T04:57:57.512Z,101089.88
2023-02-02T05:00:24.783Z,101089.84
2023-02-02T05:02:51.574Z,101088.94
2023-02-02T05:05:18.349Z,101090.63
2023-02-02T05:07:45.132Z,101085.34
2023-02-02T05:10:12.532Z,101088.00
2023-02-02T05:12:39.301Z,101095.84
2023-02-02T05:15:06.717Z,101106.38
2023-02-02T05:17:33.672Z,101098.47
2023-02-02T05:20:00.474Z,101098.44
2023-02-02T05:22:27.357Z,101097.53
2023-02-02T05:24:54.140Z,101106.38
2023-02-02T05:27:21.221Z,101108.16
2023-02-02T05:29:48.331Z,101102.06
2023-02-02T05:32:15.594Z,101108.28
2023-02-02T05:34:42.438Z,101115.38
2023-02-02T05:37:09.198Z,101107.53
2023-02-02T05:39:35.982Z,101115.47
2023-02-02T05:42:02.769Z,101124.31
2023-02-02T05:44:29.538Z,101118.19
2023-02-02T05:46:56.307Z,101121.72
2023-02-02T05:49:23.125Z,101127.88
2023-02-02T05:51:57.188Z,101127.00
2023-02-02T05:54:24.724Z,101129.63
2023-02-02T05:56:54.681Z,101136.63
2023-02-02T05:59:21.901Z,101126.94
2023-02-02T06:01:49.202Z,101134.78
2023-02-02T06:04:16.647Z,101128.63
2023-02-02T06:06:43.981Z,101126.81
2023-02-02T06:09:11.201Z,101136.44
2023-02-02T06:11:39.425Z,101147.81
2023-02-02T06:14:06.738Z,101146.97
2023-02-02T06:16:33.528Z,101150.50
2023-02-02T06:19:00.281Z,101159.28
2023-02-02T06:21:30.923Z,101161.97
2023-02-02T06:23:58.747Z,101148.78
2023-02-02T06:26:26.313Z,101156.75
2023-02-02T06:28:54.628Z,101139.25
2023-02-02T06:31:22.108Z,101156.84
2023-02-02T06:33:55.566Z,101157.69
2023-02-02T06:36:23.450Z,101169.13
2023-02-02T06:38:55.934Z,101165.59
2023-02-02T06:41:23.011Z,101179.56
2023-02-02T06:43:50.582Z,101176.03
2023-02-02T06:46:18.002Z,101169.00
2023-02-02T06:48:45.832Z,101185.72
2023-02-02T06:51:12.624Z,101190.13
2023-02-02T06:53:39.424Z,101189.28
2023-02-02T06:56:09.839Z,101188.44
2023-02-02T06:58:36.586Z,101190.19
2023-02-02T07:01:10.846Z,101194.56
2023-02-02T07:03:38.571Z,101182.28
2023-02-02T07:06:22.292Z,101189.41
2023-02-02T07:09:01.003Z,101197.31
2023-02-02T07:11:29.657Z,101199.09
2023-02-02T07:13:56.574Z,101200.81
2023-02-02T07:16:23.399Z,101201.72
2023-02-02T07:18:50.184Z,101212.25
2023-02-02T07:21:20.239Z,101204.34
2023-02-02T07:23:48.015Z,101211.41
2023-02-02T07:26:16.785Z,101213.19
2023-02-02T07:28:43.981Z,101222.00
2023-02-02T07:31:21.366Z,101216.78
2023-02-02T07:33:49.171Z,101216.78
2023-02-02T07:36:21.329Z,101217.72
2023-02-02T07:38:50.708Z,101216.03
2023-02-02T07:41:17.746Z,101225.72
2023-02-02T07:43:47.854Z,101220.50
2023-02-02T07:46:14.719Z,101224.06
2023-02-02T07:48:41.496Z,101224.09
2023-02-02T07:51:13.155Z,101229.44
2023-02-02T07:53:47.613Z,101238.25
2023-02-02T07:56:27.533Z,101238.25
2023-02-02T07:58:56.129Z,101240.03
2023-02-02T08:01:25.973Z,101248.00
2023-02-02T08:03:54.451Z,101248.94
2023-02-02T08:06:24.154Z,101246.34
2023-02-02T08:08:51.745Z,101250.78
2023-02-02T08:11:21.981Z,101267.50
2023-02-02T08:13:54.034Z,101268.47
2023-02-02T08:16:22.106Z,101270.28
2023-02-02T08:18:49.420Z,101275.59
2023-02-02T08:21:17.337Z,101273.97
2023-02-02T08:23:45.606Z,101274.06
2023-02-02T08:26:32.785Z,101282.06
2023-02-02T08:29:06.554Z,101286.50
2023-02-02T08:31:41.663Z,101288.31
2023-02-02T08:34:08.637Z,101290.16
2023-02-02T08:36:35.560Z,101290.25
2023-02-02T08:39:12.224Z,101301.84
2023-02-02T08:41:39.394Z,101299.25
2023-02-02T08:44:11.198Z,101301.09
2023-02-02T08:46:38.453Z,101306.44
2023-02-02T08:49:05.294Z,101306.50
2023-02-02T08:51:32.061Z,101313.63
2023-02-02T08:53:58.831Z,101318.97
2023-02-02T08:56:25.625Z,101320.78
2023-02-02T08:59:02.999Z,101320.88
2023-02-02T09:01:32.898Z,101328.00
2023-02-02T09:04:06.416Z,101325.41
2023-02-02T09:06:39.189Z,101331.66
2023-02-02T09:09:09.249Z,101328.22
2023-02-02T09:11:36.835Z,101324.78
2023-02-02T09:14:06.315Z,101318.69
2023-02-02T09:16:35.258Z,101332.78
2023-02-02T09:19:02.327Z,101335.47
2023-02-02T09:21:29.466Z,101341.66
2023-02-02T09:23:56.301Z,101348.72
2023-02-02T09:26:28.815Z,101346.13
2023-02-02T09:29:02.773Z,101356.75
2023-02-02T09:31:33.767Z,101362.13
2023-02-02T09:34:03.389Z,101361.41
2023-02-02T09:36:31.146Z,101365.94
2023-02-02T09:38:58.402Z,101370.44
2023-02-02T09:41:37.630Z,101379.34
2023-02-02T09:44:27.442Z,101378.50
2023-02-02T09:47:35.280Z,101375.03
2023-02-02T09:50:19.170Z,101396.28
2023-02-02T09:53:04.106Z,101394.63
2023-02-02T09:55:39.391Z,101391.13
2023-02-02T09:58:27.092Z,101400.94
2023-02-02T10:01:18.936Z,101401.94
2023-02-02T10:04:15.105Z,101404.72
2023-02-02T10:06:45.030Z,101407.44
2023-02-02T10:09:41.946Z,101406.63
2023-02-02T10:12:20.506Z,101410.19
2023-02-02T10:15:00.328Z,101403.97
2023-02-02T10:18:12.053Z,101408.44
2023-02-02T10:20:56.434Z,101428.00
2023-02-02T10:23:36.079Z,101429.06
2023-02-02T10:26:21.778Z,101426.53
2023-02-02T10:28:48.474Z,101435.41
2023-02-02T10:31:55.092Z,101431.06
2023-02-02T10:34:30.484Z,101432.94
2023-02-02T10:37:28.009Z,101440.09
2023-02-02T10:40:22.002Z,101447.28
2023-02-02T10:43:46.770Z,101450.75
2023-02-02T10:46:30.745Z,101447.06
2023-02-02T10:49:29.780Z,101448.78
2023-02-02T10:52:11.788Z,101449.56
2023-02-02T10:55:04.136Z,101443.41
2023-02-02T10:57:52.712Z,101442.53
2023-02-02T11:00:35.276Z,101464.56
2023-02-02T11:03:04.654Z,101461.91
2023-02-02T11:05:50.537Z,101472.63
2023-02-02T11:08:21.409Z,101473.66
2023-02-02T11:10:53.156Z,101474.63
2023-02-02T11:13:29.271Z,101470.28
2023-02-02T11:16:14.457Z,101474.75
2023-02-02T11:18:44.237Z,101481.78
2023-02-02T11:21:23.468Z,101475.59
2023-02-02T11:24:20.437Z,101472.91
2023-02-02T11:26:57.040Z,101465.03
2023-02-02T11:30:01.987Z,101480.97
2023-02-02T11:32:33.383Z,101464.28
2023-02-02T11:35:20.755Z,101477.66
2023-02-02T11:38:09.143Z,101483.06
2023-02-02T11:40:42.327Z,101472.63
2023-02-02T11:43:20.089Z,101479.84
2023-02-02T11:45:57.584Z,101477.31
2023-02-02T11:48:31.384Z,101464.22
2023-02-02T11:51:00.102Z,101459.88
2023-02-02T11:53:42.868Z,101464.34
2023-02-02T11:56:21.558Z,101470.53
2023-02-02T11:58:49.993Z,101474.91
2023-02-02T12:01:30.233Z,101478.44
2023-02-02T12:04:01.458Z,101475.72
2023-02-02T12:06:37.172Z,101476.59
2023-02-02T12:09:22.505Z,101473.91
2023-02-02T12:12:02.293Z,101478.34
2023-02-02T12:15:00.279Z,101473.94
2023-02-02T12:17:45.179Z,101486.31
2023-02-02T12:20:42.890Z,101472.25
2023-02-02T12:23:39.375Z,101474.88
2023-02-02T12:26:37.007Z,101489.06
2023-02-02T12:29:35.873Z,101483.75
2023-02-02T12:32:44.730Z,101487.28
2023-02-02T12:35:45.992Z,101491.66
2023-02-02T12:38:47.241Z,101481.94
2023-02-02T12:42:04.170Z,101476.66
2023-02-02T12:44:56.353Z,101482.06
2023-02-02T12:47:38.241Z,101491.88
2023-02-02T12:50:24.712Z,101476.91
2023-02-02T12:53:48.089Z,101487.56
2023-02-02T12:57:08.158Z,101485.88
2023-02-02T13:00:17.435Z,101483.22
2023-02-02T13:03:00.727Z,101485.00
2023-02-02T13:05:54.604Z,101481.50
2023-02-02T13:08:54.010Z,101476.19
2023-02-02T13:11:40.927Z,101480.63
2023-02-02T13:14:25.093Z,101479.81
2023-02-02T13:16:56.605Z,101484.28
2023-02-02T13:20:04.389Z,101479.09
2023-02-02T13:22:40.556Z,101481.81
2023-02-02T13:25:18.402Z,101488.91
2023-02-02T13:27:46.893Z,101495.97
2023-02-02T13:30:32.398Z,101500.38
2023-02-02T13:33:07.538Z,101497.63
2023-02-02T13:35:50.526Z,101493.19
2023-02-02T13:38:26.115Z,101500.13
2023-02-02T13:41:01.401Z,101508.03
2023-02-02T13:44:00.891Z,101510.63
2023-02-02T13:46:47.600Z,101519.41
2023-02-02T13:49:28.984Z,101519.38
2023-02-02T13:52:45.585Z,101522.88
2023-02-02T13:55:43.454Z,101521.09
2023-02-02T13:58:37.415Z,101520.25
2023-02-02T14:01:08.679Z,101524.69
2023-02-02T14:03:42.445Z,101528.22
2023-02-02T14:06:22.620Z,101525.50
2023-02-02T14:08:56.692Z,101533.38
2023-02-02T14:11:34.985Z,101533.28
2023-02-02T14:14:32.089Z,101539.34
2023-02-02T14:17:23.874Z,101537.50
2023-02-02T14:20:01.948Z,101545.44
2023-02-02T14:22:50.774Z,101540.16
2023-02-02T14:25:29.684Z,101555.19
2023-02-02T14:29:01.103Z,101555.09
2023-02-02T14:31:53.132Z,101554.25
2023-02-02T14:34:41.668Z,101562.22
2023-02-02T14:37:34.640Z,101560.50
2023-02-02T14:40:06.877Z,101560.50
2023-02-02T14:43:25.397Z,101558.69
2023-02-02T14:46:07.360Z,101567.41
2023-02-02T14:48:34.788Z,101563.78
2023-02-02T14:51:02.719Z,101577.00
2023-02-02T14:53:34.157Z,101579.63
2023-02-02T14:56:14.006Z,101573.41
2023-02-02T14:58:53.546Z,101582.25
2023-02-02T15:01:21.501Z,101587.53
2023-02-02T15:03:51.020Z,101592.84
2023-02-02T15:06:33.162Z,101599.00
2023-02-02T15:09:33.361Z,101605.16
2023-02-02T15:12:02.680Z,101601.53
2023-02-02T15:15:20.937Z,101605.94
2023-02-02T15:18:13.338Z,101606.69
2023-02-02T15:20:49.707Z,101609.31
2023-02-02T15:23:30.733Z,101615.41
2023-02-02T15:26:06.805Z,101624.09
2023-02-02T15:28:52.208Z,101634.63
2023-02-02T15:31:50.071Z,101643.31
2023-02-02T15:34:30.957Z,101642.31
2023-02-02T15:37:02.601Z,101641.34
2023-02-02T15:39:41.167Z,101644.78
2023-02-02T15:42:38.094Z,101649.97
2023-02-02T15:45:05.418Z,101653.34
2023-02-02T15:47:36.474Z,101652.41
2023-02-02T15:50:17.840Z,101644.47
2023-02-02T15:52:50.721Z,101650.53
2023-02-02T15:55:34.532Z,101653.97
2023-02-02T15:58:02.465Z,101652.16
2023-02-02T16:00:33.572Z,101657.44
2023-02-02T16:03:12.631Z,101661.72
2023-02-02T16:05:49.838Z,101672.25
2023-02-02T16:08:34.079Z,101672.16
2023-02-02T16:11:17.374Z,101684.44
2023-02-02T16:14:10.307Z,101684.28
2023-02-02T16:16:39.801Z,101693.06
2023-02-02T16:19:09.333Z,101696.53
2023-02-02T16:21:43.097Z,101705.34
2023-02-02T16:24:20.888Z,101707.03
2023-02-02T16:26:49.329Z,101715.81
2023-02-02T16:29:18.310Z,101717.56
2023-02-02T16:31:47.531Z,101721.03
2023-02-02T16:34:41.416Z,101727.19
2023-02-02T16:37:28.795Z,101721.91
2023-02-02T16:40:35.798Z,101739.50
2023-02-02T16:43:21.091Z,101732.47
2023-02-02T16:45:58.773Z,101742.19
2023-02-02T16:48:31.958Z,101726.34
2023-02-02T16:51:29.571Z,101732.53
2023-02-02T16:54:18.685Z,101726.38
2023-02-02T16:57:00.421Z,101726.38
2023-02-02T16:59:51.101Z,101725.53
2023-02-02T17:02:38.982Z,101723.78
2023-02-02T17:05:24.390Z,101716.66
2023-02-02T17:08:00.625Z,101729.88
2023-02-02T17:10:33.736Z,101726.38
2023-02-02T17:13:03.124Z,101729.88
2023-02-02T17:15:35.765Z,101729.97
2023-02-02T17:18:04.997Z,101724.69
2023-02-02T17:20:34.231Z,101736.22
2023-02-02T17:23:05.094Z,101737.09
2023-02-02T17:25:37.379Z,101739.78
2023-02-02T17:28:11.326Z,101742.44
2023-02-02T17:30:42.281Z,101747.72
2023-02-02T17:33:17.653Z,101743.38
2023-02-02T17:35:55.801Z,101749.53
2023-02-02T17:38:24.564Z,101752.22
2023-02-02T17:40:52.798Z,101753.97
2023-02-02T17:43:19.626Z,101753.13
2023-02-02T17:45:46.507Z,101757.50
2023-02-02T17:48:14.240Z,101751.38
2023-02-02T17:50:42.554Z,101763.75
2023-02-02T17:53:16.296Z,101758.44
2023-02-02T17:55:45.039Z,101756.66
2023-02-02T17:58:14.907Z,101759.25
2023-02-02T18:00:42.443Z,101755.75
2023-02-02T18:03:25.062Z,101750.44
2023-02-02T18:05:52.151Z,101766.22
2023-02-02T18:08:19.164Z,101759.16
2023-02-02T18:10:45.934Z,101761.75
2023-02-02T18:13:19.610Z,101754.66
2023-02-02T18:15:46.882Z,101752.88
2023-02-02T18:18:13.684Z,101760.78
2023-02-02T18:20:45.208Z,101759.03
2023-02-02T18:23:13.048Z,101760.75
2023-02-02T18:25:40.267Z,101756.31
2023-02-02T18:28:08.452Z,101749.25
2023-02-02T18:30:38.045Z,101752.75
2023-02-02T18:33:04.904Z,101743.88
2023-02-02T18:35:31.736Z,101743.88
2023-02-02T18:37:58.581Z,101739.50
2023-02-02T18:40:25.458Z,101741.22
2023-02-02T18:42:52.228Z,101747.31
2023-02-02T18:45:19.051Z,101747.31
2023-02-02T18:47:45.814Z,101756.03
2023-02-02T18:50:12.661Z,101749.84
2023-02-02T18:52:39.427Z,101745.41
2023-02-02T18:55:06.580Z,101754.19
2023-02-02T18:57:33.411Z,101743.56
2023-02-02T19:00:00.194Z,101748.84
2023-02-02T19:02:27.208Z,101739.16
2023-02-02T19:05:12.213Z,101737.34
2023-02-02T19:07:57.093Z,101744.34
2023-02-02T19:10:26.818Z,101752.16
2023-02-02T19:13:00.352Z,101751.25
2023-02-02T19:15:27.505Z,101742.38
2023-02-02T19:17:55.421Z,101744.09
2023-02-02T19:20:30.472Z,101730.03
2023-02-02T19:23:12.617Z,101742.31
2023-02-02T19:25:41.979Z,101741.38
2023-02-02T19:28:30.752Z,101733.38
2023-02-02T19:31:01.155Z,101734.22
2023-02-02T19:33:41.718Z,101736.84
2023-02-02T19:36:16.039Z,101742.03
2023-02-02T19:38:42.986Z,101739.38
2023-02-02T19:41:20.343Z,101738.44
2023-02-02T19:43:48.916Z,101737.53
2023-02-02T19:46:22.162Z,101730.41
2023-02-02T19:48:53.799Z,101726.81
2023-02-02T19:51:41.660Z,101730.28
2023-02-02T19:54:36.611Z,101717.88
2023-02-02T19:57:26.488Z,101729.25
2023-02-02T19:59:54.632Z,101712.44
2023-02-02T20:02:57.091Z,101710.69
2023-02-02T20:05:32.824Z,101701.81
2023-02-02T20:08:12.475Z,101701.75
2023-02-02T20:10:45.970Z,101701.75
2023-02-02T20:13:32.894Z,101706.13
2023-02-02T20:16:04.420Z,101694.59
2023-02-02T20:18:44.174Z,101694.59
2023-02-02T20:21:36.917Z,101688.34
2023-02-02T20:24:04.319Z,101678.59
2023-02-02T20:26:36.932Z,101678.59
2023-02-02T20:29:25.471Z,101671.53
2023-02-02T20:31:56.052Z,101671.47
2023-02-02T20:34:30.748Z,101663.56
2023-02-02T20:37:13.809Z,101664.44
2023-02-02T20:39:47.723Z,101660.91
2023-02-02T20:42:15.385Z,101669.69
2023-02-02T20:44:42.605Z,101664.41
2023-02-02T20:47:09.837Z,101659.13
2023-02-02T20:49:38.355Z,101652.06
2023-02-02T20:52:10.527Z,101653.84
2023-02-02T20:54:38.812Z,101646.78
2023-02-02T20:57:05.811Z,101652.94
2023-02-02T20:59:32.627Z,101648.56
2023-02-02T21:01:59.801Z,101638.84
2023-02-02T21:04:26.682Z,101638.84
2023-02-02T21:06:55.231Z,101637.94
2023-02-02T21:09:22.062Z,101630.88
2023-02-02T21:11:48.906Z,101631.78
2023-02-02T21:14:15.682Z,101627.34
2023-02-02T21:16:42.492Z,101612.34
2023-02-02T21:19:10.061Z,101607.97
2023-02-02T21:21:36.939Z,101613.25
2023-02-02T21:24:04.229Z,101606.22
2023-02-02T21:26:31.162Z,101607.97
2023-02-02T21:28:58.481Z,101595.66
2023-02-02T21:31:26.287Z,101605.34
2023-02-02T21:33:53.772Z,101609.72
2023-02-02T21:36:35.998Z,101600.91
2023-02-02T21:39:21.784Z,101591.19
2023-02-02T21:41:50.550Z,101616.63
2023-02-02T21:44:22.522Z,101604.28
2023-02-02T21:46:51.351Z,101581.38
2023-02-02T21:49:35.908Z,101600.72
2023-02-02T21:52:12.185Z,101597.06
2023-02-02T21:54:39.714Z,101592.69
2023-02-02T21:57:19.322Z,101592.69
2023-02-02T21:59:46.948Z,101584.72
2023-02-02T22:02:44.115Z,101591.81
2023-02-02T22:05:18.449Z,101587.31
2023-02-02T22:07:48.823Z,101584.66
2023-02-02T22:10:36.898Z,101565.31
2023-02-02T22:13:24.836Z,101576.75
2023-02-02T22:15:53.380Z,101568.84
2023-02-02T22:18:25.436Z,101567.13
2023-02-02T22:20:56.133Z,101559.19
2023-02-02T22:23:26.759Z,101563.63
2023-02-02T22:25:57.681Z,101553.13
2023-02-02T22:28:28.103Z,101556.63
2023-02-02T22:30:56.721Z,101550.50
2023-02-02T22:33:26.070Z,101554.94
2023-02-02T22:35:54.238Z,101547.97
2023-02-02T22:38:24.032Z,101537.41
2023-02-02T22:40:52.165Z,101545.38
2023-02-02T22:43:20.476Z,101532.19
2023-02-02T22:45:47.576Z,101526.06
2023-02-02T22:48:15.586Z,101526.97
2023-02-02T22:50:42.711Z,101516.41
2023-02-02T22:53:09.535Z,101505.06
2023-02-02T22:55:36.326Z,101497.16
2023-02-02T22:58:03.083Z,101497.16
2023-02-02T23:00:32.978Z,101494.56
2023-02-02T23:02:59.838Z,101494.56
2023-02-02T23:05:28.037Z,101485.78
2023-02-02T23:07:55.315Z,101487.59
2023-02-02T23:10:26.109Z,101487.59
2023-02-02T23:12:55.430Z,101485.03
2023-02-02T23:15:22.624Z,101494.75
2023-02-02T23:17:49.874Z,101471.03
2023-02-02T23:20:17.879Z,101485.16
2023-02-02T23:22:44.760Z,101485.22
2023-02-02T23:25:13.324Z,101480.88
2023-02-02T23:27:40.916Z,101470.34
2023-02-02T23:30:11.109Z,101464.22
2023-02-02T23:32:37.869Z,101478.41
2023-02-02T23:35:06.024Z,101468.75
2023-02-02T23:37:32.850Z,101462.63
2023-02-02T23:39:59.632Z,101448.56
2023-02-02T23:42:26.419Z,101438.06
2023-02-02T23:44:53.296Z,101433.75
2023-02-02T23:47:20.187Z,101430.31
2023-02-02T23:49:47.230Z,101440.09
2023-02-02T23:52:14.773Z,101437.56
2023-02-02T23:54:42.040Z,101421.84
2023-02-02T23:57:09.195Z,101438.75
2023-02-02T23:59:36.180Z,101430.06
